Time;durP1;ratioP1;P1;durP2;ratioP2;P2;SDS_P1;SDS_P2;PMS_P1;PMS_P2;Temp;Humidity;BMP_temperature;BMP_pressure;BME280_temperature;BME280_humidity;BME280_pressure;Samples;Min_cycle;Max_cycle;Signal;HPM_P1;HPM_P2
2021/03/28 00:00:18;;;;;;;15.20;3.42;;;;;;;;;;5075859;28;20058;-70
2021/03/28 00:02:49;;;;;;;13.23;4.10;;;;;;;;;;5074858;28;20017;-70
2021/03/28 00:05:17;;;;;;;11.98;3.50;;;;;;;;;;5073764;28;21114;-70
2021/03/28 00:07:48;;;;;;;11.95;3.25;;;;;;;;;;5075813;28;20017;-70
2021/03/28 00:10:22;;;;;;;8.57;3.20;;;;;;;;;;5074404;28;20372;-69
2021/03/28 00:12:48;;;;;;;14.82;4.10;;;;;;;;;;5074124;28;20444;-69
2021/03/28 00:15:16;;;;;;;13.60;3.67;;;;;;;;;;5074473;28;20017;-70
2021/03/28 00:17:41;;;;;;;14.00;3.15;;;;;;;;;;5075411;28;20012;-70
2021/03/28 00:20:16;;;;;;;13.02;3.38;;;;;;;;;;5075472;28;20107;-71
2021/03/28 00:23:10;;;;;;;12.57;3.40;;;;;;;;;;5075394;28;20078;-71
2021/03/28 00:25:43;;;;;;;14.07;3.90;;;;;;;;;;5064233;28;20106;-70
2021/03/28 00:28:20;;;;;;;11.93;3.88;;;;;;;;;;5075129;28;20013;-72
2021/03/28 00:30:45;;;;;;;14.82;4.30;;;;;;;;;;5073256;28;20012;-70
2021/03/28 00:33:13;;;;;;;12.85;4.45;;;;;;;;;;5075019;28;20017;-70
2021/03/28 00:35:59;;;;;;;15.40;4.75;;;;;;;;;;5075041;28;20013;-71
2021/03/28 00:38:27;;;;;;;13.10;4.10;;;;;;;;;;5074109;28;20024;-70
2021/03/28 00:41:22;;;;;;;12.38;3.90;;;;;;;;;;5074438;28;20344;-70
2021/03/28 00:43:49;;;;;;;14.70;4.00;;;;;;;;;;5060019;28;20369;-70
2021/03/28 00:46:41;;;;;;;14.95;4.15;;;;;;;;;;5065048;28;20039;-69
2021/03/28 00:49:07;;;;;;;11.55;3.45;;;;;;;;;;5054026;28;20083;-70
2021/03/28 00:51:34;;;;;;;10.02;3.67;;;;;;;;;;5073285;28;20449;-70
2021/03/28 00:54:13;;;;;;;13.77;4.13;;;;;;;;;;5075149;28;20035;-69
2021/03/28 00:56:41;;;;;;;11.65;4.03;;;;;;;;;;5074179;28;20028;-70
2021/03/28 00:59:17;;;;;;;15.65;4.53;;;;;;;;;;5075187;28;20032;-70
2021/03/28 01:01:42;;;;;;;13.57;4.03;;;;;;;;;;5075210;28;20036;-70
2021/03/28 01:04:28;;;;;;;13.48;4.25;;;;;;;;;;5074027;28;20020;-70
2021/03/28 01:06:53;;;;;;;10.15;3.90;;;;;;;;;;5074045;28;20025;-69
2021/03/28 01:09:38;;;;;;;12.70;4.00;;;;;;;;;;5073774;28;20058;-70
2021/03/28 01:12:26;;;;;;;13.48;4.45;;;;;;;;;;5075029;28;20031;-70
2021/03/28 01:15:10;;;;;;;11.68;3.53;;;;;;;;;;5074718;28;20031;-70
2021/03/28 01:17:42;;;;;;;11.07;3.80;;;;;;;;;;5073498;28;20023;-71
2021/03/28 01:20:25;;;;;;;9.73;3.22;;;;;;;;;;5073005;28;20020;-71
2021/03/28 01:23:22;;;;;;;8.88;3.47;;;;;;;;;;5072773;28;20070;-71
2021/03/28 01:25:48;;;;;;;12.85;3.55;;;;;;;;;;5051463;28;20043;-71
2021/03/28 01:28:13;;;;;;;10.75;3.63;;;;;;;;;;5074269;28;20016;-72
2021/03/28 01:30:40;;;;;;;14.20;3.83;;;;;;;;;;5074249;28;20012;-71
2021/03/28 01:33:12;;;;;;;11.65;3.50;;;;;;;;;;5074517;28;20031;-71
2021/03/28 01:35:45;;;;;;;13.15;3.85;;;;;;;;;;5074742;28;20038;-70
2021/03/28 01:38:11;;;;;;;12.73;3.97;;;;;;;;;;5074585;28;20119;-70
2021/03/28 01:40:45;;;;;;;11.50;3.70;;;;;;;;;;5074361;28;20096;-69
2021/03/28 01:43:20;;;;;;;12.73;3.60;;;;;;;;;;5074559;28;20023;-69
2021/03/28 01:45:48;;;;;;;7.05;3.22;;;;;;;;;;5074413;28;20020;-69
2021/03/28 01:48:31;;;;;;;12.80;3.85;;;;;;;;;;5074387;28;20314;-71
2021/03/28 01:51:26;;;;;;;10.30;4.07;;;;;;;;;;5074454;28;20353;-70
2021/03/28 01:54:02;;;;;;;11.25;4.03;;;;;;;;;;5019007;28;20096;-68
2021/03/28 01:56:43;;;;;;;10.95;3.65;;;;;;;;;;5074297;28;20070;-69
2021/03/28 01:59:16;;;;;;;10.63;3.45;;;;;;;;;;5074185;28;20028;-70
2021/03/28 02:01:43;;;;;;;16.48;3.88;;;;;;;;;;5073113;28;20029;-70
2021/03/28 02:04:09;;;;;;;9.45;3.35;;;;;;;;;;5073979;28;20464;-71
2021/03/28 02:06:42;;;;;;;8.25;3.22;;;;;;;;;;5073909;28;20036;-70
2021/03/28 02:09:10;;;;;;;10.77;3.70;;;;;;;;;;5072773;28;20139;-72
2021/03/28 02:11:38;;;;;;;8.57;2.90;;;;;;;;;;5073854;28;20025;-70
2021/03/28 02:14:09;;;;;;;12.02;3.30;;;;;;;;;;5074121;28;20025;-71
2021/03/28 02:16:53;;;;;;;10.15;3.40;;;;;;;;;;5073837;28;20024;-71
2021/03/28 02:19:23;;;;;;;11.25;3.15;;;;;;;;;;5073867;28;20032;-71
2021/03/28 02:21:49;;;;;;;10.43;3.58;;;;;;;;;;5073857;28;20020;-72
2021/03/28 02:24:32;;;;;;;10.73;3.78;;;;;;;;;;5072647;28;20020;-71
2021/03/28 02:27:16;;;;;;;11.30;2.88;;;;;;;;;;5072567;28;20025;-70
2021/03/28 02:29:42;;;;;;;9.35;3.30;;;;;;;;;;5073542;28;20032;-70
2021/03/28 02:32:36;;;;;;;10.77;3.17;;;;;;;;;;5072584;28;20020;-71
2021/03/28 02:35:07;;;;;;;8.48;3.53;;;;;;;;;;5018922;28;20723;-70
2021/03/28 02:37:39;;;;;;;11.52;3.15;;;;;;;;;;5073608;28;20023;-71
2021/03/28 02:40:05;;;;;;;13.02;3.33;;;;;;;;;;5073449;28;20024;-71
2021/03/28 02:42:34;;;;;;;11.98;3.60;;;;;;;;;;5073344;28;20017;-72
2021/03/28 02:45:02;;;;;;;12.32;3.85;;;;;;;;;;5073497;28;20460;-71
2021/03/28 02:47:36;;;;;;;8.65;3.10;;;;;;;;;;5073396;28;20021;-71
2021/03/28 02:50:20;;;;;;;8.45;3.08;;;;;;;;;;5073413;28;20342;-71
2021/03/28 02:53:04;;;;;;;8.80;3.30;;;;;;;;;;5072083;28;20146;-71
2021/03/28 02:55:32;;;;;;;8.07;3.15;;;;;;;;;;5071893;28;20009;-70
2021/03/28 02:58:06;;;;;;;13.25;3.42;;;;;;;;;;5072734;28;20028;-72
2021/03/28 03:00:40;;;;;;;8.07;3.30;;;;;;;;;;5072787;28;20028;-71
2021/03/28 03:03:08;;;;;;;14.38;3.72;;;;;;;;;;5072825;28;20028;-71
2021/03/28 03:05:52;;;;;;;11.93;3.28;;;;;;;;;;5071534;28;20051;-71
2021/03/28 03:08:26;;;;;;;8.55;3.50;;;;;;;;;;5071973;28;20048;-71
2021/03/28 03:10:56;;;;;;;9.02;3.20;;;;;;;;;;5071482;28;20088;-71
2021/03/28 03:13:34;;;;;;;8.35;3.15;;;;;;;;;;5073089;28;20021;-70
2021/03/28 03:16:05;;;;;;;11.48;3.10;;;;;;;;;;5073087;28;20012;-69
2021/03/28 03:18:49;;;;;;;8.88;3.47;;;;;;;;;;5069967;28;20012;-70
2021/03/28 03:21:33;;;;;;;9.15;3.42;;;;;;;;;;5072627;28;20094;-70
2021/03/28 03:24:04;;;;;;;10.25;3.42;;;;;;;;;;5072548;28;20071;-71
2021/03/28 03:26:35;;;;;;;13.27;3.60;;;;;;;;;;5070926;28;20028;-70
2021/03/28 03:29:06;;;;;;;6.70;3.25;;;;;;;;;;5071091;28;20063;-70
2021/03/28 03:31:31;;;;;;;9.30;3.28;;;;;;;;;;5066929;28;20016;-70
2021/03/28 03:34:15;;;;;;;9.52;3.58;;;;;;;;;;5072929;28;20028;-70
2021/03/28 03:36:46;;;;;;;11.95;3.38;;;;;;;;;;5073303;28;20021;-71
2021/03/28 03:39:13;;;;;;;14.00;3.42;;;;;;;;;;5072841;28;20138;-70
2021/03/28 03:41:53;;;;;;;7.88;3.45;;;;;;;;;;5071789;28;20024;-70
2021/03/28 03:44:38;;;;;;;9.45;3.38;;;;;;;;;;5072988;28;20347;-69
2021/03/28 03:47:12;;;;;;;9.88;3.50;;;;;;;;;;5072828;28;20039;-70
2021/03/28 03:49:49;;;;;;;7.45;3.50;;;;;;;;;;5072723;28;20028;-70
2021/03/28 03:52:36;;;;;;;12.40;3.80;;;;;;;;;;5071612;28;20371;-71
2021/03/28 03:55:15;;;;;;;7.65;2.97;;;;;;;;;;5072553;28;20023;-69
2021/03/28 03:57:43;;;;;;;9.10;3.35;;;;;;;;;;5073010;28;20020;-68
2021/03/28 04:00:08;;;;;;;11.13;3.30;;;;;;;;;;5071711;28;20016;-69
2021/03/28 04:02:55;;;;;;;8.82;3.50;;;;;;;;;;5071591;28;20034;-68
2021/03/28 04:05:23;;;;;;;8.90;3.58;;;;;;;;;;5071517;28;20441;-69
2021/03/28 04:07:51;;;;;;;10.68;3.55;;;;;;;;;;5072573;28;20563;-69
2021/03/28 04:10:28;;;;;;;8.13;3.17;;;;;;;;;;5072208;28;20036;-69
2021/03/28 04:12:56;;;;;;;10.40;3.30;;;;;;;;;;5071484;28;20016;-69
2021/03/28 04:15:38;;;;;;;8.20;3.33;;;;;;;;;;5072387;28;20043;-69
2021/03/28 04:18:22;;;;;;;11.82;3.58;;;;;;;;;;5076038;28;20013;-68
2021/03/28 04:20:47;;;;;;;12.90;3.65;;;;;;;;;;5075969;28;20096;-69
2021/03/28 04:23:12;;;;;;;9.27;3.17;;;;;;;;;;5074857;28;20186;-68
2021/03/28 04:25:41;;;;;;;10.05;3.17;;;;;;;;;;5074783;28;20103;-68
2021/03/28 04:28:19;;;;;;;11.80;3.15;;;;;;;;;;5074813;28;20078;-69
2021/03/28 04:30:56;;;;;;;9.75;3.00;;;;;;;;;;5075974;28;20025;-69
2021/03/28 04:33:40;;;;;;;10.73;3.20;;;;;;;;;;5075823;28;20032;-69
2021/03/28 04:36:11;;;;;;;10.95;3.45;;;;;;;;;;5075705;28;20008;-68
2021/03/28 04:38:46;;;;;;;14.40;3.30;;;;;;;;;;5075566;28;20025;-69
2021/03/28 04:41:24;;;;;;;10.38;3.47;;;;;;;;;;5075639;28;20471;-68
2021/03/28 04:43:55;;;;;;;11.43;4.70;;;;;;;;;;5075687;28;20353;-69
2021/03/28 04:46:25;;;;;;;13.32;5.10;;;;;;;;;;5075659;28;20028;-70
2021/03/28 04:49:09;;;;;;;8.82;4.03;;;;;;;;;;5073303;28;20025;-70
2021/03/28 04:51:48;;;;;;;11.07;3.65;;;;;;;;;;5063686;28;20036;-70
2021/03/28 04:54:43;;;;;;;10.75;2.92;;;;;;;;;;5070192;28;20017;-71
2021/03/28 04:57:18;;;;;;;10.25;3.10;;;;;;;;;;5066613;28;20349;-70
2021/03/28 04:59:55;;;;;;;9.48;3.30;;;;;;;;;;5074780;28;20089;-70
2021/03/28 05:02:26;;;;;;;9.25;3.15;;;;;;;;;;5060325;28;20079;-69
2021/03/28 05:04:51;;;;;;;9.25;2.85;;;;;;;;;;5073727;28;20036;-70
2021/03/28 05:07:16;;;;;;;8.40;3.10;;;;;;;;;;5074459;28;20232;-70
2021/03/28 05:09:50;;;;;;;9.93;3.20;;;;;;;;;;5074737;28;20052;-70
2021/03/28 05:12:24;;;;;;;11.48;3.25;;;;;;;;;;5075166;28;20017;-70
2021/03/28 05:15:11;;;;;;;10.27;3.40;;;;;;;;;;5075188;28;20032;-69
2021/03/28 05:17:42;;;;;;;11.88;3.53;;;;;;;;;;5075038;28;20059;-70
2021/03/28 05:20:13;;;;;;;7.20;3.22;;;;;;;;;;5074932;28;20028;-70
2021/03/28 05:22:57;;;;;;;9.38;3.42;;;;;;;;;;5074834;28;20166;-70
2021/03/28 05:25:34;;;;;;;8.50;3.50;;;;;;;;;;5074784;28;20436;-69
2021/03/28 05:28:05;;;;;;;11.93;3.72;;;;;;;;;;5074792;28;20037;-69
2021/03/28 05:30:39;;;;;;;7.78;3.13;;;;;;;;;;5074607;28;20027;-69
2021/03/28 05:33:25;;;;;;;11.45;3.08;;;;;;;;;;5074730;28;20407;-69
2021/03/28 05:36:09;;;;;;;9.90;3.50;;;;;;;;;;5074518;28;20012;-69
2021/03/28 05:38:52;;;;;;;9.77;3.35;;;;;;;;;;5074522;28;20044;-70
2021/03/28 05:41:38;;;;;;;8.80;2.95;;;;;;;;;;5074376;28;20039;-70
2021/03/28 05:44:22;;;;;;;8.02;3.15;;;;;;;;;;5073331;28;20028;-70
2021/03/28 05:47:07;;;;;;;12.88;4.22;;;;;;;;;;5074235;28;20050;-69
2021/03/28 05:49:40;;;;;;;12.07;4.10;;;;;;;;;;5058856;28;20037;-70
2021/03/28 05:52:24;;;;;;;10.13;4.32;;;;;;;;;;5055220;28;20430;-69
2021/03/28 05:54:55;;;;;;;10.63;4.47;;;;;;;;;;5074154;28;20020;-68
2021/03/28 05:57:56;;;;;;;12.02;4.15;;;;;;;;;;5074077;28;20016;-70
2021/03/28 06:00:44;;;;;;;8.07;4.07;;;;;;;;;;5031641;28;20018;-69
2021/03/28 06:03:15;;;;;;;8.73;3.35;;;;;;;;;;5060179;28;20020;-68
2021/03/28 06:05:44;;;;;;;10.38;3.60;;;;;;;;;;5073577;28;20103;-68
2021/03/28 06:08:20;;;;;;;7.68;3.00;;;;;;;;;;5070739;28;20344;-68
2021/03/28 06:11:04;;;;;;;10.98;3.67;;;;;;;;;;5073489;28;20021;-68
2021/03/28 06:13:32;;;;;;;10.38;3.30;;;;;;;;;;5069922;28;20423;-69
2021/03/28 06:16:17;;;;;;;8.90;2.97;;;;;;;;;;5073716;28;20649;-69
2021/03/28 06:18:57;;;;;;;6.53;2.78;;;;;;;;;;5072661;28;20380;-69
2021/03/28 06:21:41;;;;;;;8.50;2.40;;;;;;;;;;5073506;28;20032;-70
2021/03/28 06:24:22;;;;;;;6.85;2.13;;;;;;;;;;5073232;28;20048;-68
2021/03/28 06:27:06;;;;;;;11.30;2.83;;;;;;;;;;5065037;28;20099;-68
2021/03/28 06:29:31;;;;;;;7.20;2.53;;;;;;;;;;5070564;28;20031;-73
2021/03/28 06:32:21;;;;;;;7.63;2.90;;;;;;;;;;5073166;28;20100;-70
2021/03/28 06:34:59;;;;;;;9.60;2.65;;;;;;;;;;5073417;28;20297;-71
2021/03/28 06:37:27;;;;;;;6.53;2.58;;;;;;;;;;5088376;28;20016;-69
2021/03/28 06:40:04;;;;;;;10.75;2.55;;;;;;;;;;5074834;28;20024;-69
2021/03/28 06:43:04;;;;;;;9.50;2.38;;;;;;;;;;5073446;28;20082;-70
2021/03/28 06:45:41;;;;;;;10.18;2.58;;;;;;;;;;5003910;28;20022;-70
2021/03/28 06:48:08;;;;;;;6.07;2.03;;;;;;;;;;5069196;28;20077;-70
2021/03/28 06:50:36;;;;;;;7.35;2.40;;;;;;;;;;5065061;28;20352;-71
2021/03/28 06:53:03;;;;;;;8.02;2.20;;;;;;;;;;5074891;28;20026;-71
2021/03/28 06:55:37;;;;;;;7.93;2.95;;;;;;;;;;5072905;28;20463;-73
2021/03/28 06:58:21;;;;;;;8.20;2.83;;;;;;;;;;5065968;28;20024;-71
2021/03/28 07:01:05;;;;;;;11.27;2.25;;;;;;;;;;5067039;28;20078;-69
2021/03/28 07:03:49;;;;;;;7.00;2.53;;;;;;;;;;5073273;28;20448;-69
2021/03/28 07:06:20;;;;;;;12.63;2.72;;;;;;;;;;5075190;28;20129;-70
2021/03/28 07:08:45;;;;;;;7.78;2.25;;;;;;;;;;5084704;28;20091;-70
2021/03/28 07:11:16;;;;;;;8.60;2.70;;;;;;;;;;5071603;28;20503;-70
2021/03/28 07:13:53;;;;;;;9.10;2.50;;;;;;;;;;5074632;28;20273;-70
2021/03/28 07:16:37;;;;;;;8.02;2.60;;;;;;;;;;5072415;28;20095;-71
2021/03/28 07:19:20;;;;;;;7.35;2.53;;;;;;;;;;5070667;28;20039;-69
2021/03/28 07:22:07;;;;;;;7.82;2.47;;;;;;;;;;5071542;28;20056;-71
2021/03/28 07:24:32;;;;;;;10.07;2.45;;;;;;;;;;5070764;28;20099;-73
2021/03/28 07:27:00;;;;;;;7.47;2.42;;;;;;;;;;5072357;28;20388;-74
2021/03/28 07:29:29;;;;;;;6.95;2.60;;;;;;;;;;5069151;28;20055;-75
2021/03/28 07:32:14;;;;;;;9.45;3.20;;;;;;;;;;5070561;28;20476;-74
2021/03/28 07:34:58;;;;;;;8.32;3.45;;;;;;;;;;5067085;28;20033;-74
2021/03/28 07:37:32;;;;;;;7.60;2.97;;;;;;;;;;5072755;28;20028;-74
2021/03/28 07:40:16;;;;;;;7.63;2.72;;;;;;;;;;5083566;28;20456;-75
2021/03/28 07:42:52;;;;;;;9.60;2.90;;;;;;;;;;5069892;28;20440;-75
2021/03/28 07:45:36;;;;;;;8.00;2.83;;;;;;;;;;5075645;28;20338;-75
2021/03/28 07:48:15;;;;;;;7.30;2.70;;;;;;;;;;5072804;28;20356;-74
2021/03/28 07:50:47;;;;;;;7.30;2.88;;;;;;;;;;5078611;28;20023;-74
2021/03/28 07:53:26;;;;;;;8.95;2.90;;;;;;;;;;5086502;28;20326;-74
2021/03/28 07:56:10;;;;;;;10.05;3.60;;;;;;;;;;5092419;28;20016;-74
2021/03/28 07:58:35;;;;;;;7.93;3.65;;;;;;;;;;5069638;28;20345;-73
2021/03/28 08:01:03;;;;;;;8.98;3.80;;;;;;;;;;5079145;28;20031;-78
2021/03/28 08:03:49;;;;;;;7.72;2.75;;;;;;;;;;5076162;28;20515;-78
2021/03/28 08:06:32;;;;;;;9.27;3.35;;;;;;;;;;5076975;28;20028;-74
2021/03/28 08:09:07;;;;;;;8.93;3.00;;;;;;;;;;5072735;28;20143;-78
2021/03/28 08:11:40;;;;;;;11.07;3.30;;;;;;;;;;5074880;28;20020;-78
2021/03/28 08:14:24;;;;;;;8.00;2.67;;;;;;;;;;5076438;28;20021;-76
2021/03/28 08:17:08;;;;;;;8.77;3.00;;;;;;;;;;5075592;28;20017;-77
2021/03/28 08:19:54;;;;;;;7.00;2.85;;;;;;;;;;5074618;28;20032;-79
2021/03/28 08:22:38;;;;;;;16.00;3.30;;;;;;;;;;5073446;28;20025;-77
2021/03/28 08:25:12;;;;;;;7.95;2.92;;;;;;;;;;5078210;28;20153;-86
2021/03/28 08:27:40;;;;;;;8.30;2.88;;;;;;;;;;5076242;28;20016;-84
2021/03/28 08:30:17;;;;;;;6.47;2.70;;;;;;;;;;5086273;28;20073;-82
2021/03/28 08:32:53;;;;;;;12.02;3.50;;;;;;;;;;5072625;28;20386;-80
2021/03/28 08:35:18;;;;;;;9.75;2.85;;;;;;;;;;5072811;28;20441;-79
2021/03/28 08:38:03;;;;;;;7.30;2.50;;;;;;;;;;5075150;28;20078;-76
2021/03/28 08:40:33;;;;;;;12.45;5.30;;;;;;;;;;5072849;28;20029;-78
2021/03/28 08:43:05;;;;;;;9.27;4.35;;;;;;;;;;5078946;28;20068;-79
2021/03/28 08:45:50;;;;;;;8.15;3.05;;;;;;;;;;5075027;28;20127;-76
2021/03/28 08:48:51;;;;;;;9.18;3.00;;;;;;;;;;5053753;28;20024;-76
2021/03/28 08:51:16;;;;;;;10.68;3.10;;;;;;;;;;4994028;28;20033;-75
2021/03/28 08:54:17;;;;;;;12.53;3.07;;;;;;;;;;5058202;28;20029;-76
2021/03/28 08:56:42;;;;;;;8.57;3.00;;;;;;;;;;5010887;28;20346;-76
2021/03/28 08:59:08;;;;;;;13.13;3.20;;;;;;;;;;5064784;28;20067;-76
2021/03/28 09:01:39;;;;;;;9.32;2.75;;;;;;;;;;5076933;28;20099;-77
2021/03/28 09:04:13;;;;;;;9.35;3.17;;;;;;;;;;5077184;28;20039;-77
2021/03/28 09:06:49;;;;;;;8.52;2.70;;;;;;;;;;5079763;28;20025;-78
2021/03/28 09:09:26;;;;;;;11.75;2.47;;;;;;;;;;5076448;28;20121;-77
2021/03/28 09:12:14;;;;;;;8.77;2.60;;;;;;;;;;5074464;28;20448;-77
2021/03/28 09:14:45;;;;;;;8.25;2.75;;;;;;;;;;5083073;28;20012;-75
2021/03/28 09:17:11;;;;;;;7.85;2.80;;;;;;;;;;5077888;28;20012;-74
2021/03/28 09:19:58;;;;;;;5.70;2.40;;;;;;;;;;5088292;28;20029;-77
2021/03/28 09:22:42;;;;;;;6.05;2.35;;;;;;;;;;5074145;28;20324;-77
2021/03/28 09:25:18;;;;;;;7.38;2.60;;;;;;;;;;5082871;28;20444;-76
2021/03/28 09:27:48;;;;;;;8.40;2.20;;;;;;;;;;5087194;28;20185;-76
2021/03/28 09:30:16;;;;;;;7.43;2.30;;;;;;;;;;5077692;28;20029;-76
2021/03/28 09:32:47;;;;;;;8.15;2.80;;;;;;;;;;5075184;28;20459;-76
2021/03/28 09:35:16;;;;;;;8.10;2.50;;;;;;;;;;5073121;28;20024;-75
2021/03/28 09:37:57;;;;;;;6.63;2.35;;;;;;;;;;5076818;28;20032;-77
2021/03/28 09:40:41;;;;;;;5.68;2.45;;;;;;;;;;5078029;28;20437;-76
2021/03/28 09:43:06;;;;;;;6.22;2.30;;;;;;;;;;5075519;28;20062;-77
2021/03/28 09:45:44;;;;;;;7.20;2.45;;;;;;;;;;5078743;28;20051;-77
2021/03/28 09:48:37;;;;;;;7.72;2.38;;;;;;;;;;5070971;28;20016;-80
2021/03/28 09:51:08;;;;;;;6.65;2.30;;;;;;;;;;5079775;28;20056;-77
2021/03/28 09:53:41;;;;;;;7.68;2.33;;;;;;;;;;5073400;28;20012;-74
2021/03/28 09:56:06;;;;;;;10.18;2.63;;;;;;;;;;5072378;28;20028;-76
2021/03/28 09:58:37;;;;;;;6.30;2.65;;;;;;;;;;5074283;28;20024;-73
2021/03/28 10:01:05;;;;;;;7.18;2.38;;;;;;;;;;5090621;28;20024;-74
2021/03/28 10:03:36;;;;;;;11.00;2.33;;;;;;;;;;5076290;28;20047;-74
2021/03/28 10:06:05;;;;;;;7.18;2.28;;;;;;;;;;5070452;28;20100;-75
2021/03/28 10:08:36;;;;;;;7.20;1.95;;;;;;;;;;5082709;28;20032;-75
2021/03/28 10:11:22;;;;;;;6.95;1.90;;;;;;;;;;5069990;28;20085;-73
2021/03/28 10:14:01;;;;;;;4.35;1.80;;;;;;;;;;5072470;28;20028;-74
2021/03/28 10:16:47;;;;;;;6.55;2.10;;;;;;;;;;5073326;28;20020;-73
2021/03/28 10:19:16;;;;;;;7.75;2.10;;;;;;;;;;5060463;28;20512;-74
2021/03/28 10:21:50;;;;;;;6.95;2.05;;;;;;;;;;5086048;28;20023;-74
2021/03/28 10:24:15;;;;;;;9.25;2.13;;;;;;;;;;5086027;28;20030;-73
2021/03/28 10:26:48;;;;;;;8.93;2.37;;;;;;;;;;5077509;28;20091;-73
2021/03/28 10:29:28;;;;;;;6.93;2.13;;;;;;;;;;5073013;28;20271;-73
2021/03/28 10:31:59;;;;;;;7.38;2.17;;;;;;;;;;5073259;28;20056;-73
2021/03/28 10:34:43;;;;;;;7.50;2.30;;;;;;;;;;5073522;28;20017;-73
2021/03/28 10:37:21;;;;;;;6.82;1.95;;;;;;;;;;5073897;28;20012;-74
2021/03/28 10:40:06;;;;;;;5.85;2.08;;;;;;;;;;5073583;28;20484;-74
2021/03/28 10:42:47;;;;;;;8.02;2.35;;;;;;;;;;5073502;28;20020;-74
2021/03/28 10:45:30;;;;;;;6.32;2.28;;;;;;;;;;5073529;28;20017;-74
2021/03/28 10:48:07;;;;;;;6.97;2.08;;;;;;;;;;5073431;28;20056;-73
2021/03/28 10:50:38;;;;;;;6.40;2.08;;;;;;;;;;5073321;28;20021;-73
2021/03/28 10:53:19;;;;;;;7.53;2.10;;;;;;;;;;5073321;28;20034;-74
2021/03/28 10:55:57;;;;;;;8.10;2.45;;;;;;;;;;5058672;28;20044;-74
2021/03/28 10:58:40;;;;;;;8.23;2.40;;;;;;;;;;5072350;28;20043;-74
2021/03/28 11:01:14;;;;;;;6.60;2.60;;;;;;;;;;5069959;28;20028;-73
2021/03/28 11:03:54;;;;;;;5.18;2.03;;;;;;;;;;5067207;28;21188;-80
2021/03/28 11:06:38;;;;;;;10.27;2.08;;;;;;;;;;5073021;28;20033;-75
2021/03/28 11:09:08;;;;;;;6.43;2.15;;;;;;;;;;5086075;28;20088;-73
2021/03/28 11:11:53;;;;;;;10.25;2.35;;;;;;;;;;5070569;28;20021;-74
2021/03/28 11:14:37;;;;;;;6.18;2.35;;;;;;;;;;5052007;28;20392;-76
2021/03/28 11:17:05;;;;;;;5.45;2.28;;;;;;;;;;5086428;28;20047;-76
2021/03/28 11:19:45;;;;;;;8.57;2.92;;;;;;;;;;5083352;28;20482;-74
2021/03/28 11:22:15;;;;;;;6.75;2.65;;;;;;;;;;5077107;28;20089;-75
2021/03/28 11:24:54;;;;;;;8.27;2.65;;;;;;;;;;5073473;28;20345;-76
2021/03/28 11:27:24;;;;;;;5.38;2.22;;;;;;;;;;5076456;28;20020;-73
2021/03/28 11:30:07;;;;;;;7.53;2.25;;;;;;;;;;5076055;28;20028;-74
2021/03/28 11:32:50;;;;;;;4.65;2.05;;;;;;;;;;5079274;28;20019;-73
2021/03/28 11:35:34;;;;;;;5.38;1.90;;;;;;;;;;5088992;28;20499;-74
2021/03/28 11:38:29;;;;;;;7.90;2.40;;;;;;;;;;5083357;28;20016;-73
2021/03/28 11:41:07;;;;;;;7.72;2.42;;;;;;;;;;5076749;28;20384;-74
2021/03/28 11:43:35;;;;;;;5.97;2.40;;;;;;;;;;5085449;28;20107;-73
2021/03/28 11:46:04;;;;;;;6.25;2.22;;;;;;;;;;5091690;28;20069;-73
2021/03/28 11:48:41;;;;;;;6.45;2.22;;;;;;;;;;5076785;28;20476;-74
2021/03/28 11:51:15;;;;;;;7.63;2.90;;;;;;;;;;5059118;28;20025;-74
2021/03/28 11:53:40;;;;;;;7.55;2.25;;;;;;;;;;5087546;28;20037;-74
2021/03/28 11:56:25;;;;;;;5.75;2.45;;;;;;;;;;5080824;28;20426;-75
2021/03/28 11:58:51;;;;;;;5.57;2.20;;;;;;;;;;5081184;28;20458;-75
2021/03/28 12:01:35;;;;;;;6.70;2.33;;;;;;;;;;5087397;28;20028;-73
2021/03/28 12:04:22;;;;;;;5.28;2.00;;;;;;;;;;5090908;28;20064;-74
2021/03/28 12:06:50;;;;;;;8.02;2.25;;;;;;;;;;5064287;28;20056;-75
2021/03/28 12:09:23;;;;;;;4.85;2.13;;;;;;;;;;5088300;28;20055;-74
2021/03/28 12:11:49;;;;;;;6.50;2.30;;;;;;;;;;5076674;28;20035;-74
2021/03/28 12:14:17;;;;;;;6.63;2.17;;;;;;;;;;5092863;28;20109;-76
2021/03/28 12:17:01;;;;;;;4.15;1.90;;;;;;;;;;5063495;28;20016;-74
2021/03/28 12:19:27;;;;;;;4.95;2.13;;;;;;;;;;5086490;28;20094;-73
2021/03/28 12:22:02;;;;;;;4.50;2.13;;;;;;;;;;5088514;28;20389;-74
2021/03/28 12:24:29;;;;;;;5.05;2.03;;;;;;;;;;5078365;28;20062;-73
2021/03/28 12:26:59;;;;;;;3.80;1.90;;;;;;;;;;5089770;28;20021;-73
2021/03/28 12:29:27;;;;;;;4.93;1.90;;;;;;;;;;5074670;28;20020;-74
2021/03/28 12:31:53;;;;;;;5.97;2.50;;;;;;;;;;5075445;28;20108;-74
2021/03/28 12:34:40;;;;;;;5.75;2.53;;;;;;;;;;5075852;28;20028;-72
2021/03/28 12:37:06;;;;;;;9.48;2.50;;;;;;;;;;5075108;28;20372;-72
2021/03/28 12:39:34;;;;;;;8.38;2.03;;;;;;;;;;5075761;28;20017;-73
2021/03/28 12:42:18;;;;;;;5.03;1.88;;;;;;;;;;5075579;28;20023;-72
2021/03/28 12:44:45;;;;;;;6.10;2.30;;;;;;;;;;5073036;28;20017;-74
2021/03/28 12:47:21;;;;;;;4.32;2.00;;;;;;;;;;5075707;28;20070;-73
2021/03/28 12:49:50;;;;;;;4.53;2.00;;;;;;;;;;5075582;28;20283;-73
2021/03/28 12:52:18;;;;;;;4.95;2.30;;;;;;;;;;5074550;28;20028;-73
2021/03/28 12:54:52;;;;;;;10.82;2.22;;;;;;;;;;5075561;28;20445;-73
2021/03/28 12:57:27;;;;;;;6.63;2.05;;;;;;;;;;5075478;28;20021;-73
2021/03/28 12:59:53;;;;;;;;;;;;;;;;;;5075835;28;20051;-74
2021/03/28 13:02:18;;;;;;;5.50;1.98;;;;;;;;;;5075235;28;19908;-73
2021/03/28 13:04:50;;;;;;;6.67;2.30;;;;;;;;;;5074389;28;20389;-73
2021/03/28 13:07:32;;;;;;;8.15;2.10;;;;;;;;;;5075301;28;20017;-73
2021/03/28 13:09:57;;;;;;;6.20;2.20;;;;;;;;;;5075115;28;20469;-74
2021/03/28 13:12:24;;;;;;;5.70;2.25;;;;;;;;;;5073945;28;20115;-74
2021/03/28 13:14:51;;;;;;;7.38;2.50;;;;;;;;;;5074296;28;20021;-76
2021/03/28 13:17:22;;;;;;;6.15;2.13;;;;;;;;;;5073928;28;20420;-76
2021/03/28 13:19:49;;;;;;;7.22;2.00;;;;;;;;;;5071969;28;20489;-78
2021/03/28 13:22:27;;;;;;;4.15;1.83;;;;;;;;;;5073772;28;20020;-77
2021/03/28 13:25:04;;;;;;;6.28;2.10;;;;;;;;;;5078355;28;20016;-77
2021/03/28 13:27:29;;;;;;;5.28;2.20;;;;;;;;;;5078550;28;20341;-74
2021/03/28 13:29:58;;;;;;;5.93;2.30;;;;;;;;;;5083673;28;20063;-74
2021/03/28 13:32:27;;;;;;;6.05;2.28;;;;;;;;;;5082441;28;20077;-75
2021/03/28 13:35:24;;;;;;;8.57;2.20;;;;;;;;;;5079747;28;20024;-75
2021/03/28 13:37:51;;;;;;;6.18;2.45;;;;;;;;;;5083600;28;20345;-75
2021/03/28 13:40:24;;;;;;;6.55;2.20;;;;;;;;;;5085505;28;20112;-75
2021/03/28 13:42:49;;;;;;;9.43;2.22;;;;;;;;;;5063857;28;20020;-74
2021/03/28 13:45:17;;;;;;;7.37;2.13;;;;;;;;;;5071942;28;20356;-76
2021/03/28 13:47:47;;;;;;;5.57;2.20;;;;;;;;;;5076932;28;20695;-75
2021/03/28 13:50:17;;;;;;;10.77;2.30;;;;;;;;;;5078650;28;20024;-75
2021/03/28 13:52:45;;;;;;;11.27;2.63;;;;;;;;;;5075124;28;20021;-75
2021/03/28 13:55:12;;;;;;;5.28;2.20;;;;;;;;;;5076958;28;20032;-73
2021/03/28 13:57:39;;;;;;;7.38;2.20;;;;;;;;;;5078057;28;20349;-74
2021/03/28 14:00:25;;;;;;;9.23;2.35;;;;;;;;;;5064907;28;20016;-76
2021/03/28 14:02:52;;;;;;;5.27;1.93;;;;;;;;;;5067133;28;20157;-75
2021/03/28 14:05:19;;;;;;;6.18;2.25;;;;;;;;;;5075503;28;20111;-74
2021/03/28 14:07:48;;;;;;;6.40;2.33;;;;;;;;;;5073303;28;20023;-74
2021/03/28 14:10:32;;;;;;;5.03;2.20;;;;;;;;;;5073239;28;20075;-73
2021/03/28 14:13:12;;;;;;;6.90;2.15;;;;;;;;;;5073439;28;20031;-73
2021/03/28 14:15:47;;;;;;;5.93;2.15;;;;;;;;;;5073835;28;20031;-72
2021/03/28 14:18:13;;;;;;;5.90;2.30;;;;;;;;;;5073936;28;20035;-72
2021/03/28 14:20:45;;;;;;;5.75;2.13;;;;;;;;;;5073606;28;20349;-72
2021/03/28 14:23:13;;;;;;;5.72;2.38;;;;;;;;;;5073699;28;20021;-74
2021/03/28 14:25:52;;;;;;;7.20;2.28;;;;;;;;;;5073394;28;20013;-74
2021/03/28 14:28:33;;;;;;;8.10;2.10;;;;;;;;;;5070483;28;20146;-74
2021/03/28 14:31:00;;;;;;;7.47;2.40;;;;;;;;;;5070796;28;20056;-75
2021/03/28 14:33:29;;;;;;;7.00;2.20;;;;;;;;;;5073034;28;20032;-74
2021/03/28 14:36:06;;;;;;;5.72;1.83;;;;;;;;;;5073359;28;20024;-72
2021/03/28 14:38:44;;;;;;;6.70;2.10;;;;;;;;;;5072434;28;20115;-75
2021/03/28 14:41:15;;;;;;;6.50;2.13;;;;;;;;;;5062651;28;20052;-74
2021/03/28 14:43:40;;;;;;;6.10;2.38;;;;;;;;;;5060763;28;20016;-73
2021/03/28 14:46:12;;;;;;;8.93;2.23;;;;;;;;;;5064364;28;20032;-74
2021/03/28 14:48:56;;;;;;;4.60;1.77;;;;;;;;;;5070011;28;20416;-74
2021/03/28 14:51:32;;;;;;;3.90;1.77;;;;;;;;;;5065047;28;20395;-74
2021/03/28 14:54:03;;;;;;;7.80;1.80;;;;;;;;;;5073096;28;20032;-74
2021/03/28 14:56:51;;;;;;;6.70;1.80;;;;;;;;;;5072867;28;20103;-74
2021/03/28 14:59:19;;;;;;;5.25;2.10;;;;;;;;;;5070693;28;20563;-74
2021/03/28 15:01:53;;;;;;;7.57;2.30;;;;;;;;;;5068355;28;20558;-75
2021/03/28 15:04:21;;;;;;;5.43;2.30;;;;;;;;;;5071141;28;20421;-74
2021/03/28 15:07:06;;;;;;;7.90;2.20;;;;;;;;;;5066511;28;20113;-75
2021/03/28 15:09:31;;;;;;;6.35;2.20;;;;;;;;;;5054904;28;20098;-73
2021/03/28 15:12:00;;;;;;;6.88;2.00;;;;;;;;;;5063835;28;20056;-74
2021/03/28 15:14:25;;;;;;;4.30;1.88;;;;;;;;;;5064771;28;20361;-74
2021/03/28 15:16:50;;;;;;;9.00;2.20;;;;;;;;;;5053370;28;20036;-73
2021/03/28 15:19:15;;;;;;;7.00;2.08;;;;;;;;;;5070948;28;20070;-74
2021/03/28 15:21:52;;;;;;;6.45;2.00;;;;;;;;;;5075508;28;20009;-75
2021/03/28 15:24:36;;;;;;;9.20;2.25;;;;;;;;;;5074050;28;20027;-74